Time;durP1;ratioP1;P1;durP2;ratioP2;P2;SDS_P1;SDS_P2;PMS_P1;PMS_P2;Temp;Humidity;BMP_temperature;BMP_pressure;BME280_temperature;BME280_humidity;BME280_pressure;Samples;Min_cycle;Max_cycle;Signal;HPM_P1;HPM_P2
2021/11/25 00:00:26;;;;;;;26.77;18.00;;;8.30;1.00;;;;;;5064129;28;20197;-88
2021/11/25 00:03:01;;;;;;;30.00;19.37;;;8.30;1.00;;;;;;5069736;28;20739;-89
2021/11/25 00:05:27;;;;;;;28.87;19.67;;;8.40;1.00;;;;;;5057735;28;20204;-86
2021/11/25 00:07:53;;;;;;;29.23;19.27;;;8.40;1.00;;;;;;5061048;28;20532;-90
2021/11/25 00:10:20;;;;;;;28.27;18.43;;;8.40;1.00;;;;;;5063527;28;20169;-81
2021/11/25 00:12:47;;;;;;;26.33;18.03;;;8.40;1.00;;;;;;5068028;28;20228;-86
2021/11/25 00:15:15;;;;;;;28.30;19.03;;;8.30;1.00;;;;;;5067359;28;20181;-86
2021/11/25 00:17:42;;;;;;;25.43;17.80;;;8.30;3.20;;;;;;5069545;28;20165;-82
2021/11/25 00:20:11;;;;;;;27.13;17.90;;;8.30;4.00;;;;;;5058036;28;20169;-85
2021/11/25 00:22:40;;;;;;;24.97;16.43;;;8.30;1.00;;;;;;5058839;28;20169;-88
2021/11/25 00:25:07;;;;;;;26.47;18.63;;;8.30;1.00;;;;;;5060937;28;20540;-89
2021/11/25 00:27:33;;;;;;;26.17;18.37;;;8.30;1.00;;;;;;5056559;28;20203;-83
2021/11/25 00:29:58;;;;;;;27.00;17.83;;;8.30;1.00;;;;;;5057867;28;20169;-82
2021/11/25 00:32:24;;;;;;;28.27;17.77;;;8.20;2.10;;;;;;5058382;28;20269;-86
2021/11/25 00:34:50;;;;;;;27.50;18.97;;;8.20;1.40;;;;;;5059821;28;20211;-87
2021/11/25 00:37:16;;;;;;;24.77;17.53;;;8.20;3.00;;;;;;5063017;28;20153;-87
2021/11/25 00:39:42;;;;;;;26.97;17.00;;;8.20;1.00;;;;;;5075348;28;20229;-77
2021/11/25 00:42:08;;;;;;;24.47;17.50;;;8.20;1.00;;;;;;5076511;28;20184;-81
2021/11/25 00:44:35;;;;;;;25.23;16.63;;;8.20;1.00;;;;;;5073867;28;20185;-81
2021/11/25 00:47:29;;;;;;;25.00;16.90;;;8.00;1.00;;;;;;5071297;28;20141;-80
2021/11/25 00:49:58;;;;;;;24.87;17.03;;;8.00;1.00;;;;;;5073240;28;20169;-78
2021/11/25 00:52:26;;;;;;;24.30;16.70;;;7.90;6.20;;;;;;5076389;28;20180;-88
2021/11/25 00:54:52;;;;;;;26.47;18.50;;;8.00;9.70;;;;;;5075751;28;20189;-81
2021/11/25 00:57:21;;;;;;;27.43;18.97;;;8.10;7.20;;;;;;5066470;28;20240;-87
2021/11/25 00:59:52;;;;;;;24.43;17.80;;;8.20;4.00;;;;;;5068567;28;20250;-88
2021/11/25 01:02:21;;;;;;;31.77;19.57;;;8.30;1.00;;;;;;5058057;28;20192;-83
2021/11/25 01:04:56;;;;;;;27.20;19.17;;;8.30;1.00;;;;;;5063502;28;20188;-78
2021/11/25 01:07:22;;;;;;;28.60;19.73;;;8.30;1.00;;;;;;5074758;28;20252;-78
2021/11/25 01:09:49;;;;;;;27.60;18.17;;;8.30;1.00;;;;;;5063271;28;20208;-88
2021/11/25 01:12:16;;;;;;;27.57;18.23;;;8.10;1.00;;;;;;5059151;28;20180;-86
2021/11/25 01:14:48;;;;;;;29.53;18.97;;;8.00;1.40;;;;;;5056351;28;20196;-88
2021/11/25 01:17:17;;;;;;;26.97;18.63;;;7.90;9.90;;;;;;5057720;28;20157;-88
2021/11/25 01:19:43;;;;;;;27.63;19.13;;;7.90;13.10;;;;;;5058548;28;20177;-88
2021/11/25 01:22:09;;;;;;;28.93;19.60;;;8.10;7.10;;;;;;5067443;28;20237;-86
2021/11/25 01:24:34;;;;;;;27.70;19.13;;;8.00;6.50;;;;;;5062045;28;20188;-82
2021/11/25 01:27:00;;;;;;;30.27;19.70;;;7.90;13.80;;;;;;5055176;28;20631;-85
2021/11/25 01:29:26;;;;;;;27.13;18.23;;;7.80;19.50;;;;;;5055961;28;20545;-88
2021/11/25 01:31:57;;;;;;;28.80;19.00;;;7.70;24.80;;;;;;5056073;28;20222;-90
2021/11/25 01:34:24;;;;;;;31.33;20.27;;;7.80;28.00;;;;;;5062540;28;20200;-88
2021/11/25 01:36:50;;;;;;;28.60;19.17;;;7.90;28.60;;;;;;5062718;28;20173;-88
2021/11/25 01:39:17;;;;;;;28.90;19.40;;;8.00;25.80;;;;;;5054593;28;20179;-88
2021/11/25 01:41:49;;;;;;;28.97;19.13;;;8.10;23.90;;;;;;5055060;28;20161;-90
2021/11/25 01:44:15;;;;;;;29.60;19.80;;;8.10;19.50;;;;;;5055533;28;20169;-89
2021/11/25 01:46:41;;;;;;;34.50;20.63;;;8.10;20.60;;;;;;5054744;28;20218;-87
2021/11/25 01:49:07;;;;;;;28.83;20.93;;;8.20;20.20;;;;;;5061644;28;20177;-87
2021/11/25 01:51:33;;;;;;;32.53;21.40;;;8.00;21.30;;;;;;5068289;28;20173;-79
2021/11/25 01:53:59;;;;;;;33.97;22.53;;;7.80;29.10;;;;;;5055184;28;20664;-79
2021/11/25 01:56:25;;;;;;;33.27;22.10;;;7.90;30.50;;;;;;5055427;28;20188;-85
2021/11/25 01:58:52;;;;;;;38.70;24.57;;;8.20;26.10;;;;;;5054841;28;20177;-84
2021/11/25 02:01:20;;;;;;;32.93;21.30;;;8.20;22.90;;;;;;5055882;28;20196;-88
2021/11/25 02:03:47;;;;;;;34.77;23.33;;;8.10;21.70;;;;;;5055914;28;20559;-86
2021/11/25 02:06:17;;;;;;;34.07;22.43;;;8.20;25.50;;;;;;5056686;28;20176;-79
2021/11/25 02:08:43;;;;;;;36.97;25.57;;;8.20;28.20;;;;;;5055552;28;20249;-86
2021/11/25 02:11:10;;;;;;;36.97;23.73;;;8.10;29.50;;;;;;5058225;28;20169;-89
2021/11/25 02:13:36;;;;;;;37.20;24.47;;;8.10;28.20;;;;;;5058298;28;20263;-86
2021/11/25 02:16:02;;;;;;;35.13;24.07;;;8.10;29.40;;;;;;5058371;28;20169;-89
2021/11/25 02:18:29;;;;;;;35.57;23.63;;;8.20;28.90;;;;;;5057412;28;20173;-87
2021/11/25 02:21:00;;;;;;;35.37;23.23;;;8.20;26.70;;;;;;5055895;28;20161;-79
2021/11/25 02:23:27;;;;;;;37.50;24.47;;;8.30;27.70;;;;;;5054692;28;20529;-85
2021/11/25 02:25:55;;;;;;;36.73;23.33;;;8.20;27.40;;;;;;5055854;28;20177;-85
2021/11/25 02:28:23;;;;;;;37.50;24.57;;;8.20;28.70;;;;;;5059579;28;20618;-91
2021/11/25 02:30:50;;;;;;;37.60;24.53;;;8.10;32.10;;;;;;5058951;28;20248;-87
2021/11/25 02:33:16;;;;;;;34.37;23.23;;;8.10;35.80;;;;;;5058327;28;20204;-89
2021/11/25 02:35:42;;;;;;;35.87;23.90;;;8.00;38.10;;;;;;5057615;28;20180;-88
2021/11/25 02:38:10;;;;;;;40.70;26.23;;;7.90;40.70;;;;;;5057786;28;20173;-84
2021/11/25 02:40:42;;;;;;;36.97;25.43;;;7.90;42.50;;;;;;5059289;28;20198;-89
2021/11/25 02:43:14;;;;;;;42.53;26.80;;;7.80;43.60;;;;;;5060250;28;20175;-89
2021/11/25 02:46:00;;;;;;;41.10;27.60;;;8.00;42.20;;;;;;5059168;28;20626;-80
2021/11/25 02:48:32;;;;;;;36.50;24.80;;;7.90;40.80;;;;;;5062093;28;20173;-89
2021/11/25 02:51:00;;;;;;;46.87;27.40;;;7.80;47.10;;;;;;5060904;28;20303;-82
2021/11/25 02:53:31;;;;;;;38.57;25.93;;;7.70;49.10;;;;;;5065111;28;20189;-84
2021/11/25 02:56:11;;;;;;;42.43;27.33;;;7.80;48.40;;;;;;5069610;28;20233;-86
2021/11/25 02:58:37;;;;;;;43.20;27.87;;;7.80;41.40;;;;;;5074578;28;20193;-86
2021/11/25 03:01:29;;;;;;;48.93;28.13;;;7.80;38.50;;;;;;5078578;28;20219;-83
2021/11/25 03:03:55;;;;;;;44.13;27.97;;;7.70;43.80;;;;;;5079690;28;20169;-78
2021/11/25 03:06:21;;;;;;;44.00;28.03;;;7.50;47.80;;;;;;5080172;28;20171;-83
2021/11/25 03:08:47;;;;;;;43.20;27.37;;;7.60;52.80;;;;;;5078534;28;20174;-86
2021/11/25 03:11:16;;;;;;;42.60;26.93;;;7.30;57.60;;;;;;5080281;28;20164;-78
2021/11/25 03:13:45;;;;;;;43.20;26.40;;;7.20;71.00;;;;;;5079289;28;20215;-89
2021/11/25 03:16:15;;;;;;;41.50;26.97;;;7.10;75.70;;;;;;5061877;28;20177;-77
2021/11/25 03:18:41;;;;;;;41.73;27.40;;;7.00;81.70;;;;;;5078211;28;20162;-85
2021/11/25 03:21:08;;;;;;;43.63;27.90;;;7.30;85.70;;;;;;5075220;28;20212;-86
2021/11/25 03:23:37;;;;;;;40.53;26.70;;;7.30;82.80;;;;;;5068070;28;20236;-85
2021/11/25 03:26:05;;;;;;;41.23;27.23;;;7.20;80.50;;;;;;5070820;28;20230;-88
2021/11/25 03:28:31;;;;;;;43.10;28.07;;;7.30;80.40;;;;;;5069609;28;20176;-86
2021/11/25 03:30:58;;;;;;;44.33;26.67;;;7.40;79.40;;;;;;5069260;28;20260;-86
2021/11/25 03:33:28;;;;;;;40.10;26.87;;;7.30;77.20;;;;;;5061387;28;20204;-90
2021/11/25 03:35:56;;;;;;;42.10;27.83;;;7.20;77.60;;;;;;5063782;28;20173;-90
2021/11/25 03:38:27;;;;;;;43.00;27.80;;;6.90;82.90;;;;;;5072285;28;20134;-86
2021/11/25 03:41:02;;;;;;;44.43;27.20;;;6.90;86.20;;;;;;5079073;28;20176;-78
2021/11/25 03:43:31;;;;;;;40.97;27.60;;;6.90;88.80;;;;;;5080242;28;20145;-86
2021/11/25 03:45:59;;;;;;;44.90;28.47;;;7.00;89.40;;;;;;5080240;28;20156;-87
2021/11/25 03:51:48;;;;;;;42.57;27.30;;;7.40;70.90;;;;;;5059520;28;20168;-90
2021/11/25 03:54:14;;;;;;;41.63;28.50;;;7.40;66.50;;;;;;5071174;28;20267;-85
2021/11/25 03:56:40;;;;;;;46.33;29.70;;;7.30;66.90;;;;;;5076945;28;20169;-89
2021/11/25 03:59:09;;;;;;;40.70;26.63;;;7.20;71.40;;;;;;5065294;28;20157;-90
2021/11/25 04:01:38;;;;;;;40.30;26.50;;;7.20;70.70;;;;;;5077465;28;20356;-84
2021/11/25 04:04:03;;;;;;;41.80;27.80;;;7.10;72.70;;;;;;5073786;28;20269;-90
2021/11/25 04:07:03;;;;;;;43.73;28.30;;;7.10;76.00;;;;;;5064788;28;20158;-90
2021/11/25 04:09:44;;;;;;;42.80;27.03;;;7.00;79.00;;;;;;5059328;28;20259;-90
2021/11/25 04:12:10;;;;;;;39.87;27.07;;;6.90;81.90;;;;;;5066480;28;20160;-78
2021/11/25 04:14:36;;;;;;;39.70;27.63;;;6.90;84.30;;;;;;5078884;28;20197;-84
2021/11/25 04:17:04;;;;;;;44.03;26.93;;;6.80;85.40;;;;;;5067940;28;20225;-89
2021/11/25 04:19:32;;;;;;;39.37;27.00;;;6.80;89.30;;;;;;5079759;28;20146;-86
2021/11/25 04:21:58;;;;;;;44.30;27.40;;;6.70;89.60;;;;;;5071880;28;20235;-88
2021/11/25 04:24:30;;;;;;;44.20;27.37;;;6.60;91.30;;;;;;5076078;28;20181;-78
2021/11/25 04:26:58;;;;;;;42.83;27.13;;;6.60;92.30;;;;;;5077791;28;20161;-89
2021/11/25 04:29:26;;;;;;;40.50;27.67;;;6.60;92.30;;;;;;5076517;28;20241;-79
2021/11/25 04:38:18;;;;;;;38.87;25.17;;;6.70;92.50;;;;;;5072945;28;20172;-90
2021/11/25 04:44:06;;;;;;;38.77;24.67;;;6.40;91.00;;;;;;5059136;28;20566;-86
2021/11/25 04:46:32;;;;;;;41.50;25.87;;;6.40;91.40;;;;;;5057148;28;20176;-85
2021/11/25 04:48:58;;;;;;;42.70;25.83;;;6.30;92.00;;;;;;5062860;28;20172;-84
2021/11/25 04:51:25;;;;;;;39.83;26.23;;;6.10;93.30;;;;;;5069971;28;20161;-89
2021/11/25 04:53:51;;;;;;;42.43;26.17;;;6.20;93.80;;;;;;5058708;28;20196;-88
2021/11/25 04:56:17;;;;;;;39.93;27.10;;;6.10;93.80;;;;;;5072080;28;20140;-78
2021/11/25 04:58:42;;;;;;;44.13;26.03;;;6.20;94.20;;;;;;5075653;28;20171;-82
2021/11/25 05:01:36;;;;;;;45.00;26.80;;;6.20;93.80;;;;;;5077220;28;20169;-78
2021/11/25 05:04:01;;;;;;;46.27;27.23;;;6.10;93.60;;;;;;5076522;28;20180;-88
2021/11/25 05:06:28;;;;;;;43.07;26.97;;;6.00;93.90;;;;;;5074535;28;20165;-81
2021/11/25 05:09:06;;;;;;;41.20;25.67;;;6.00;95.20;;;;;;5071592;28;20226;-89
2021/11/25 05:11:47;;;;;;;46.43;27.13;;;5.90;95.70;;;;;;5068566;28;20171;-87
2021/11/25 05:14:47;;;;;;;46.10;27.73;;;5.90;96.10;;;;;;5061184;28;20218;-88
2021/11/25 05:17:54;;;;;;;47.23;27.67;;;5.80;96.50;;;;;;5059220;28;20157;-88
2021/11/25 05:20:21;;;;;;;49.60;27.70;;;5.80;96.90;;;;;;5056309;28;20173;-88
2021/11/25 05:22:47;;;;;;;50.63;28.97;;;5.60;97.30;;;;;;5058757;28;20169;-90
2021/11/25 05:25:15;;;;;;;53.60;29.73;;;5.70;98.10;;;;;;5056475;28;20165;-86
2021/11/25 05:27:41;;;;;;;53.90;29.40;;;5.80;98.40;;;;;;5056346;28;20651;-89
2021/11/25 05:30:09;;;;;;;53.70;30.27;;;5.80;98.60;;;;;;5054956;28;20169;-89
2021/11/25 05:32:35;;;;;;;52.33;29.50;;;5.70;98.80;;;;;;5056709;28;20189;-88
2021/11/25 05:35:02;;;;;;;51.23;30.07;;;5.60;98.90;;;;;;5059607;28;20684;-90
2021/11/25 05:37:28;;;;;;;57.13;31.37;;;5.60;99.70;;;;;;5056297;28;20161;-90
2021/11/25 05:39:54;;;;;;;54.83;31.80;;;5.60;99.90;;;;;;5057003;28;20600;-89
2021/11/25 05:42:20;;;;;;;60.80;32.70;;;5.90;99.90;;;;;;5064430;28;20196;-82
2021/11/25 05:44:46;;;;;;;54.93;30.80;;;5.70;99.90;;;;;;5064896;28;20172;-85
2021/11/25 05:47:12;;;;;;;55.60;32.13;;;5.80;99.90;;;;;;5058066;28;20169;-84
2021/11/25 05:49:38;;;;;;;56.50;32.00;;;5.90;99.90;;;;;;5056292;28;20180;-88
2021/11/25 05:52:04;;;;;;;64.13;33.13;;;5.90;99.90;;;;;;5060314;28;20248;-88
2021/11/25 05:54:31;;;;;;;63.70;33.17;;;5.80;99.90;;;;;;5056137;28;20211;-89
2021/11/25 05:56:57;;;;;;;60.83;33.00;;;5.70;99.90;;;;;;5064935;28;20232;-83
2021/11/25 05:59:22;;;;;;;59.20;31.37;;;5.80;99.90;;;;;;5064484;28;20173;-84
2021/11/25 06:01:50;;;;;;;56.83;32.67;;;5.80;99.90;;;;;;5074515;28;20165;-77
2021/11/25 06:04:16;;;;;;;63.03;34.20;;;5.80;99.90;;;;;;5071902;28;20233;-82
2021/11/25 06:06:42;;;;;;;59.20;32.07;;;5.90;99.90;;;;;;5056239;28;20192;-84
2021/11/25 06:09:07;;;;;;;60.63;32.50;;;6.10;99.90;;;;;;5050415;28;20672;-89
2021/11/25 06:11:34;;;;;;;66.23;34.23;;;6.10;99.90;;;;;;5043900;28;20185;-88
2021/11/25 06:14:00;;;;;;;57.20;31.60;;;6.20;99.90;;;;;;5044628;28;20209;-82
2021/11/25 06:16:25;;;;;;;53.03;31.17;;;6.20;99.90;;;;;;5042381;28;20270;-81
2021/11/25 06:18:51;;;;;;;58.47;33.03;;;6.20;99.90;;;;;;5051671;28;20185;-81
2021/11/25 06:21:18;;;;;;;57.53;31.03;;;6.10;99.90;;;;;;5054110;28;20195;-79
2021/11/25 06:23:45;;;;;;;54.20;31.33;;;6.10;99.90;;;;;;5053853;28;20173;-83
2021/11/25 06:26:11;;;;;;;52.47;30.73;;;6.00;99.90;;;;;;5052000;28;20648;-79
2021/11/25 06:28:36;;;;;;;56.27;30.80;;;6.00;99.90;;;;;;5054362;28;20229;-77
2021/11/25 06:31:04;;;;;;;55.07;31.43;;;6.10;99.90;;;;;;5053003;28;20222;-78
2021/11/25 06:33:31;;;;;;;51.00;30.60;;;6.10;99.90;;;;;;5051786;28;20189;-77
2021/11/25 06:35:56;;;;;;;45.03;27.90;;;6.10;99.90;;;;;;5054031;28;20176;-84
2021/11/25 06:38:28;;;;;;;46.87;28.23;;;6.20;99.90;;;;;;5045724;28;20170;-88
2021/11/25 06:40:54;;;;;;;45.23;30.40;;;6.10;99.90;;;;;;5043276;28;20176;-81
2021/11/25 06:43:22;;;;;;;42.33;27.27;;;6.00;99.90;;;;;;5037925;28;20264;-81
2021/11/25 06:45:54;;;;;;;43.60;28.63;;;5.80;99.90;;;;;;5050086;28;20173;-84
2021/11/25 06:48:22;;;;;;;40.73;27.60;;;5.80;99.90;;;;;;5057425;28;20625;-85
2021/11/25 06:50:49;;;;;;;37.70;25.40;;;5.80;99.90;;;;;;5057071;28;20188;-86
2021/11/25 06:53:15;;;;;;;38.00;25.83;;;5.90;99.90;;;;;;5058927;28;20197;-84
2021/11/25 06:55:40;;;;;;;42.63;26.43;;;5.90;99.90;;;;;;5058377;28;20192;-79
2021/11/25 06:58:08;;;;;;;36.67;26.10;;;6.00;99.90;;;;;;5052019;28;20621;-87
2021/11/25 07:00:34;;;;;;;34.90;25.07;;;6.10;99.90;;;;;;5051046;28;20203;-87
2021/11/25 07:03:01;;;;;;;35.47;24.33;;;6.00;99.90;;;;;;5057116;28;20173;-86
2021/11/25 07:05:29;;;;;;;32.70;24.83;;;6.10;99.90;;;;;;5057288;28;20193;-86
2021/11/25 07:07:56;;;;;;;37.97;25.83;;;6.20;99.90;;;;;;5058774;28;20197;-86
2021/11/25 07:10:23;;;;;;;35.93;24.93;;;6.20;99.90;;;;;;5058917;28;20183;-86
2021/11/25 07:12:49;;;;;;;37.20;24.87;;;6.30;99.90;;;;;;5059287;28;20234;-87
2021/11/25 07:15:17;;;;;;;36.23;25.90;;;6.20;99.90;;;;;;5054150;28;20250;-89
2021/11/25 07:17:46;;;;;;;35.50;24.80;;;6.30;99.90;;;;;;5072136;28;20165;-79
2021/11/25 07:20:13;;;;;;;36.63;24.83;;;6.30;99.90;;;;;;5062764;28;20169;-89
2021/11/25 07:22:39;;;;;;;38.13;26.23;;;6.10;99.90;;;;;;5061180;28;20225;-88
2021/11/25 07:25:07;;;;;;;35.07;23.80;;;6.20;99.90;;;;;;5058712;28;20172;-85
2021/11/25 07:27:34;;;;;;;39.50;25.23;;;6.00;99.90;;;;;;5057782;28;20192;-86
2021/11/25 07:30:00;;;;;;;41.47;27.80;;;6.00;99.90;;;;;;5056407;28;20173;-87
2021/11/25 07:32:26;;;;;;;41.53;28.17;;;6.00;99.90;;;;;;5060997;28;20260;-87
2021/11/25 07:34:53;;;;;;;37.83;26.37;;;6.20;99.90;;;;;;5061802;28;20212;-87
2021/11/25 07:37:20;;;;;;;44.20;26.70;;;6.00;99.90;;;;;;5064103;28;20181;-86
2021/11/25 07:39:45;;;;;;;39.03;26.27;;;6.00;99.90;;;;;;5057786;28;20176;-83
2021/11/25 07:42:11;;;;;;;44.80;27.70;;;6.20;99.90;;;;;;5049857;28;20181;-85
2021/11/25 07:44:37;;;;;;;46.97;27.53;;;6.40;99.90;;;;;;5043914;28;20206;-84
2021/11/25 07:47:04;;;;;;;43.23;28.47;;;6.50;99.90;;;;;;5042427;28;20667;-88
2021/11/25 07:49:29;;;;;;;44.33;27.43;;;6.30;99.90;;;;;;5056347;28;20169;-87
2021/11/25 07:52:00;;;;;;;44.73;27.83;;;6.40;99.90;;;;;;5056498;28;20173;-88
2021/11/25 07:54:27;;;;;;;44.47;25.13;;;6.40;99.90;;;;;;5059019;28;20224;-80
2021/11/25 07:56:59;;;;;;;39.90;27.37;;;6.30;99.90;;;;;;5056737;28;20197;-87
2021/11/25 07:59:27;;;;;;;40.70;26.30;;;6.20;99.90;;;;;;5056998;28;20176;-82
2021/11/25 08:01:56;;;;;;;51.10;27.00;;;6.20;99.90;;;;;;5056833;28;20161;-79
2021/11/25 08:04:21;;;;;;;42.23;26.73;;;6.20;99.90;;;;;;5056360;28;20180;-86
2021/11/25 08:06:47;;;;;;;48.37;26.50;;;6.20;99.90;;;;;;5050224;28;20196;-79
2021/11/25 08:09:13;;;;;;;48.77;26.67;;;6.20;99.90;;;;;;5060799;28;20184;-82
2021/11/25 08:11:38;;;;;;;44.73;27.70;;;6.20;99.90;;;;;;5061614;28;20903;-85
2021/11/25 08:14:04;;;;;;;39.37;25.40;;;6.10;99.90;;;;;;5066746;28;20216;-82
2021/11/25 08:16:30;;;;;;;46.97;27.10;;;6.20;99.90;;;;;;5059191;28;20161;-86
2021/11/25 08:18:55;;;;;;;42.03;27.30;;;6.10;99.90;;;;;;5075029;28;20177;-88
2021/11/25 08:21:22;;;;;;;42.33;26.00;;;6.10;99.90;;;;;;5074172;28;20187;-84
2021/11/25 08:23:48;;;;;;;41.80;26.03;;;6.10;99.90;;;;;;5068128;28;20174;-87
2021/11/25 08:26:24;;;;;;;40.63;27.77;;;6.30;99.90;;;;;;5059147;28;20174;-88
2021/11/25 08:28:50;;;;;;;44.03;26.93;;;6.30;99.90;;;;;;5060512;28;20251;-82
2021/11/25 08:34:29;;;;;;;43.13;28.37;;;6.30;99.90;;;;;;5055476;28;20201;-87
2021/11/25 08:36:55;;;;;;;45.97;28.57;;;6.40;99.90;;;;;;5058194;28;20181;-86
2021/11/25 08:39:21;;;;;;;44.97;29.07;;;6.40;99.90;;;;;;5056309;28;20188;-85
2021/11/25 08:41:48;;;;;;;52.20;30.83;;;6.50;99.90;;;;;;5056515;28;20202;-84
2021/11/25 08:44:14;;;;;;;47.27;31.47;;;6.60;99.90;;;;;;5049911;28;20196;-84
2021/11/25 08:46:39;;;;;;;49.93;30.40;;;6.70;99.90;;;;;;5039164;28;20653;-83
2021/11/25 08:49:05;;;;;;;44.43;30.40;;;6.60;99.90;;;;;;5055267;28;20647;-85
2021/11/25 08:51:31;;;;;;;52.43;32.10;;;6.50;99.90;;;;;;5068274;28;20177;-82
2021/11/25 08:54:00;;;;;;;48.80;31.30;;;6.60;99.90;;;;;;5065907;28;20684;-85
2021/11/25 08:56:27;;;;;;;49.40;29.63;;;6.50;99.90;;;;;;5057035;28;20177;-83
2021/11/25 08:58:55;;;;;;;48.27;30.23;;;6.60;99.90;;;;;;5055850;28;20188;-84
2021/11/25 09:01:20;;;;;;;46.83;30.53;;;6.80;99.90;;;;;;5057070;28;20193;-83
2021/11/25 09:03:48;;;;;;;50.73;31.87;;;6.80;99.90;;;;;;5057213;28;20310;-83
2021/11/25 09:06:14;;;;;;;48.00;31.37;;;6.80;99.90;;;;;;5040170;28;20193;-83
2021/11/25 09:08:41;;;;;;;51.27;31.20;;;6.90;99.90;;;;;;5054928;28;20267;-88
2021/11/25 09:11:08;;;;;;;45.63;30.20;;;6.90;99.90;;;;;;5047227;28;20173;-84
2021/11/25 09:13:34;;;;;;;45.93;30.10;;;6.90;99.90;;;;;;5052596;28;20559;-82
2021/11/25 09:15:59;;;;;;;48.13;29.97;;;6.90;99.90;;;;;;5048810;28;20248;-85
2021/11/25 09:18:25;;;;;;;45.40;29.70;;;6.90;99.90;;;;;;5033839;28;20212;-86
2021/11/25 09:20:51;;;;;;;46.97;30.73;;;6.90;99.90;;;;;;5038971;28;20235;-87
2021/11/25 09:23:19;;;;;;;55.83;32.40;;;7.00;99.90;;;;;;5050588;28;20161;-85
2021/11/25 09:25:48;;;;;;;48.53;30.83;;;7.00;99.90;;;;;;5044534;28;20212;-83
2021/11/25 09:28:23;;;;;;;45.90;29.47;;;7.00;99.90;;;;;;5056455;28;20184;-79
2021/11/25 09:30:50;;;;;;;53.77;32.13;;;7.00;99.90;;;;;;5065701;28;20319;-79
2021/11/25 09:33:17;;;;;;;50.53;30.43;;;7.00;99.90;;;;;;5073673;28;20193;-79
2021/11/25 09:35:46;;;;;;;46.90;30.27;;;7.00;99.90;;;;;;5067696;28;20173;-81
2021/11/25 09:41:35;;;;;;;42.10;30.37;;;7.00;99.90;;;;;;5057854;28;20714;-85
2021/11/25 09:44:01;;;;;;;48.83;32.10;;;7.00;99.90;;;;;;5054466;28;20641;-81
2021/11/25 09:46:30;;;;;;;48.93;31.03;;;7.10;99.90;;;;;;5053322;28;20175;-82
2021/11/25 09:48:57;;;;;;;48.40;30.80;;;7.20;99.90;;;;;;5053273;28;20218;-82
2021/11/25 09:51:24;;;;;;;51.03;31.87;;;7.30;99.90;;;;;;5051853;28;20192;-80
2021/11/25 09:53:51;;;;;;;48.23;30.80;;;7.40;99.90;;;;;;5053470;28;20201;-82
2021/11/25 09:56:18;;;;;;;46.77;30.90;;;7.40;99.90;;;;;;5045601;28;20645;-84
2021/11/25 09:58:47;;;;;;;43.73;30.20;;;7.40;99.90;;;;;;5037000;28;20180;-82
2021/11/25 10:01:18;;;;;;;49.00;30.50;;;7.30;99.90;;;;;;5056524;28;20272;-83
2021/11/25 10:03:48;;;;;;;48.90;31.37;;;7.20;99.90;;;;;;5063237;28;20609;-79
2021/11/25 10:06:29;;;;;;;48.23;31.17;;;7.10;99.90;;;;;;5057442;28;20185;-80
2021/11/25 10:08:57;;;;;;;50.23;30.87;;;7.20;99.90;;;;;;5047900;28;20180;-83
2021/11/25 10:11:37;;;;;;;54.67;33.23;;;7.20;99.90;;;;;;5052965;28;20625;-81
2021/11/25 10:14:08;;;;;;;60.07;33.87;;;7.20;99.90;;;;;;5053165;28;20698;-86
2021/11/25 10:16:47;;;;;;;64.40;35.77;;;7.10;99.90;;;;;;5043407;28;20513;-85
2021/11/25 10:19:19;;;;;;;57.00;33.67;;;7.10;99.90;;;;;;5075383;28;20187;-83
2021/11/25 10:21:56;;;;;;;49.33;31.53;;;7.10;99.90;;;;;;5076545;28;20180;-80
2021/11/25 10:24:45;;;;;;;54.03;36.00;;;7.10;99.90;;;;;;5067950;28;20166;-81
2021/11/25 10:27:26;;;;;;;55.07;34.53;;;7.30;99.90;;;;;;5073366;28;20247;-79
2021/11/25 10:33:13;;;;;;;53.87;33.17;;;7.30;99.90;;;;;;5063316;28;20231;-80
2021/11/25 10:41:22;;;;;;;58.43;35.13;;;7.60;99.90;;;;;;5054304;28;20177;-86
2021/11/25 10:44:24;;;;;;;56.30;34.67;;;7.60;99.90;;;;;;5046955;28;20166;-86
2021/11/25 10:50:15;;;;;;;58.70;37.00;;;7.80;99.90;;;;;;5055092;28;20188;-86
2021/11/25 10:52:43;;;;;;;61.07;35.33;;;7.70;99.90;;;;;;5058027;28;20176;-86
2021/11/25 10:55:20;;;;;;;55.37;36.73;;;7.60;99.90;;;;;;5058250;28;20241;-87
2021/11/25 10:57:49;;;;;;;59.33;36.17;;;7.70;99.90;;;;;;5054040;28;20233;-84
2021/11/25 11:00:23;;;;;;;55.00;35.27;;;7.80;99.90;;;;;;5060074;28;20200;-84
2021/11/25 11:03:03;;;;;;;62.70;37.77;;;7.80;99.90;;;;;;5050093;28;20204;-84
2021/11/25 11:05:31;;;;;;;59.57;36.33;;;7.90;99.90;;;;;;5056476;28;20193;-87
2021/11/25 11:08:06;;;;;;;56.87;35.30;;;7.90;99.90;;;;;;5058036;28;20181;-85
2021/11/25 11:10:32;;;;;;;63.00;36.53;;;7.90;99.90;;;;;;5047211;28;20529;-86
2021/11/25 11:20:49;;;;;;;53.50;34.53;;;8.00;99.90;;;;;;5069122;28;20244;-85
2021/11/25 11:23:20;;;;;;;58.10;34.87;;;7.90;99.90;;;;;;5073105;28;20230;-86
2021/11/25 11:25:49;;;;;;;60.93;36.20;;;8.10;99.90;;;;;;5061294;28;20196;-85
2021/11/25 11:28:15;;;;;;;54.20;36.17;;;8.20;99.90;;;;;;5050127;28;20652;-85
2021/11/25 11:30:41;;;;;;;61.90;36.53;;;8.30;99.90;;;;;;5057720;28;20559;-86
2021/11/25 11:33:11;;;;;;;58.20;37.13;;;8.10;99.90;;;;;;5057744;28;20735;-87
2021/11/25 11:35:39;;;;;;;54.33;36.37;;;8.10;99.90;;;;;;5057360;28;20210;-85
2021/11/25 11:38:06;;;;;;;64.50;38.20;;;8.20;99.90;;;;;;5057319;28;20594;-86
2021/11/25 11:40:36;;;;;;;65.37;39.43;;;8.30;99.90;;;;;;5055060;28;20173;-85
2021/11/25 11:43:03;;;;;;;67.20;40.83;;;8.30;99.70;;;;;;5056118;28;20181;-86
2021/11/25 11:45:33;;;;;;;64.17;38.33;;;8.30;99.90;;;;;;5057067;28;20179;-86
2021/11/25 11:48:02;;;;;;;63.00;39.37;;;8.30;99.90;;;;;;5051947;28;20169;-85
2021/11/25 11:50:36;;;;;;;57.33;39.00;;;8.40;99.90;;;;;;5048689;28;20193;-81
2021/11/25 11:53:06;;;;;;;60.00;38.87;;;8.40;99.90;;;;;;5058575;28;20204;-87
2021/11/25 11:55:43;;;;;;;58.90;38.70;;;8.50;99.90;;;;;;5058782;28;20188;-86
2021/11/25 11:58:23;;;;;;;57.27;38.90;;;8.60;99.90;;;;;;5044497;28;20165;-87
2021/11/25 12:00:51;;;;;;;67.47;41.00;;;8.70;99.90;;;;;;5052553;28;20189;-84
2021/11/25 12:03:43;;;;;;;66.50;40.40;;;8.70;99.60;;;;;;5065936;28;20244;-78
2021/11/25 12:06:09;;;;;;;63.63;39.77;;;8.70;99.90;;;;;;5064778;28;20188;-85
2021/11/25 12:08:35;;;;;;;62.07;38.63;;;8.60;99.90;;;;;;5056232;28;20158;-82
2021/11/25 12:11:07;;;;;;;64.73;40.20;;;8.50;99.90;;;;;;5055053;28;20192;-86
2021/11/25 12:13:57;;;;;;;60.53;39.27;;;8.60;99.90;;;;;;5062995;28;20213;-88
2021/11/25 12:16:22;;;;;;;53.23;37.40;;;8.80;99.90;;;;;;5071161;28;20165;-86
2021/11/25 12:18:54;;;;;;;62.80;41.23;;;8.80;99.90;;;;;;5056261;28;20180;-85
2021/11/25 12:21:47;;;;;;;62.30;39.67;;;8.80;99.90;;;;;;5057640;28;20248;-85
2021/11/25 12:24:22;;;;;;;57.63;39.03;;;8.90;99.90;;;;;;5055393;28;20173;-87
2021/11/25 12:27:09;;;;;;;61.50;38.50;;;8.80;99.90;;;;;;5038854;28;20268;-81
2021/11/25 12:29:47;;;;;;;52.30;35.50;;;8.90;99.90;;;;;;5053083;28;20193;-83
2021/11/25 12:32:30;;;;;;;44.87;30.73;;;9.10;99.90;;;;;;5045145;28;20191;-86
2021/11/25 12:34:59;;;;;;;51.67;33.53;;;9.10;99.90;;;;;;5049888;28;20208;-86
2021/11/25 12:37:51;;;;;;;45.17;31.57;;;9.20;99.90;;;;;;5056430;28;20713;-87
2021/11/25 12:40:17;;;;;;;51.13;30.40;;;9.30;99.90;;;;;;5055976;28;20173;-88
2021/11/25 12:43:00;;;;;;;45.80;28.53;;;9.10;99.90;;;;;;5057065;28;20480;-87
2021/11/25 12:45:30;;;;;;;42.00;27.80;;;9.10;99.90;;;;;;5061935;28;20165;-88
2021/11/25 12:48:09;;;;;;;38.30;25.20;;;9.20;99.90;;;;;;5056164;28;20644;-86
2021/11/25 12:50:53;;;;;;;34.73;23.40;;;9.10;99.90;;;;;;5056285;28;20219;-85
2021/11/25 12:53:29;;;;;;;31.73;21.27;;;9.30;99.90;;;;;;5058622;28;20197;-90
2021/11/25 12:56:09;;;;;;;36.10;22.53;;;9.30;99.90;;;;;;5061691;28;20177;-88
2021/11/25 12:58:53;;;;;;;28.70;19.97;;;9.20;99.90;;;;;;5048783;28;20184;-89
2021/11/25 13:01:33;;;;;;;28.90;20.53;;;9.30;99.90;;;;;;5061139;28;20196;-90
2021/11/25 13:04:07;;;;;;;26.30;17.80;;;9.30;99.90;;;;;;5055936;28;20211;-88
2021/11/25 13:06:35;;;;;;;28.80;18.07;;;9.20;99.90;;;;;;5061885;28;20263;-88
2021/11/25 13:09:05;;;;;;;30.13;19.83;;;9.20;99.90;;;;;;5059531;28;20203;-88
2021/11/25 13:11:33;;;;;;;22.80;17.23;;;9.40;99.90;;;;;;5060816;28;20559;-86
2021/11/25 13:14:20;;;;;;;30.53;18.57;;;9.50;99.90;;;;;;5048535;28;20201;-89
2021/11/25 13:16:48;;;;;;;32.33;18.43;;;9.30;99.90;;;;;;5050562;28;20183;-82
2021/11/25 13:19:15;;;;;;;23.97;17.87;;;9.30;99.90;;;;;;5062203;28;20169;-87
2021/11/25 13:21:46;;;;;;;25.87;18.57;;;9.40;99.90;;;;;;5058253;28;20180;-89
2021/11/25 13:24:36;;;;;;;29.20;17.83;;;9.30;99.90;;;;;;5056746;28;20177;-89
2021/11/25 13:27:17;;;;;;;30.20;18.37;;;9.50;99.90;;;;;;5055248;28;20264;-90
2021/11/25 13:29:58;;;;;;;24.70;18.43;;;9.30;99.90;;;;;;5059126;28;20540;-89